sensor_id;sensor_type;location;lat;lon;timestamp;temperature;humidity
11569;DHT22;5840;46.894;15.542;2023-11-21T00:01:20;6.00;99.90
11569;DHT22;5840;46.894;15.542;2023-11-21T00:03:49;6.00;99.90
11569;DHT22;5840;46.894;15.542;2023-11-21T00:06:16;6.00;99.90
11569;DHT22;5840;46.894;15.542;2023-11-21T00:08:43;6.00;99.90
11569;DHT22;5840;46.894;15.542;2023-11-21T00:11:10;5.90;99.90
11569;DHT22;5840;46.894;15.542;2023-11-21T00:13:37;5.90;99.90
11569;DHT22;5840;46.894;15.542;2023-11-21T00:16:05;5.90;99.90
11569;DHT22;5840;46.894;15.542;2023-11-21T00:18:33;5.90;99.90
11569;DHT22;5840;46.894;15.542;2023-11-21T00:21:01;6.00;99.90
11569;DHT22;5840;46.894;15.542;2023-11-21T00:23:29;6.00;99.90
11569;DHT22;5840;46.894;15.542;2023-11-21T00:25:56;6.10;99.90
11569;DHT22;5840;46.894;15.542;2023-11-21T00:28:23;6.00;99.90
11569;DHT22;5840;46.894;15.542;2023-11-21T00:30:50;6.00;99.90
11569;DHT22;5840;46.894;15.542;2023-11-21T00:33:17;6.10;99.90
11569;DHT22;5840;46.894;15.542;2023-11-21T00:35:45;6.10;99.90
11569;DHT22;5840;46.894;15.542;2023-11-21T00:38:13;6.10;99.90
11569;DHT22;5840;46.894;15.542;2023-11-21T00:40:40;6.10;99.90
11569;DHT22;5840;46.894;15.542;2023-11-21T00:43:07;6.10;99.90
11569;DHT22;5840;46.894;15.542;2023-11-21T00:45:34;6.10;99.90
11569;DHT22;5840;46.894;15.542;2023-11-21T00:48:02;6.20;99.90
11569;DHT22;5840;46.894;15.542;2023-11-21T00:50:30;6.20;99.90
11569;DHT22;5840;46.894;15.542;2023-11-21T00:52:57;6.20;99.90
11569;DHT22;5840;46.894;15.542;2023-11-21T00:55:25;6.20;99.90
11569;DHT22;5840;46.894;15.542;2023-11-21T00:57:53;6.20;99.90
11569;DHT22;5840;46.894;15.542;2023-11-21T01:00:20;6.20;99.90
11569;DHT22;5840;46.894;15.542;2023-11-21T01:02:47;6.20;99.90
11569;DHT22;5840;46.894;15.542;2023-11-21T01:05:14;6.20;99.90
11569;DHT22;5840;46.894;15.542;2023-11-21T01:07:41;6.20;99.90
11569;DHT22;5840;46.894;15.542;2023-11-21T01:10:08;6.20;99.90
11569;DHT22;5840;46.894;15.542;2023-11-21T01:12:38;6.10;99.90
11569;DHT22;5840;46.894;15.542;2023-11-21T01:15:06;6.10;99.90
11569;DHT22;5840;46.894;15.542;2023-11-21T01:17:33;6.10;99.90
11569;DHT22;5840;46.894;15.542;2023-11-21T01:20:00;6.10;99.90
11569;DHT22;5840;46.894;15.542;2023-11-21T01:22:28;6.10;99.90
11569;DHT22;5840;46.894;15.542;2023-11-21T01:24:55;6.10;99.90
11569;DHT22;5840;46.894;15.542;2023-11-21T01:27:22;6.00;99.90
11569;DHT22;5840;46.894;15.542;2023-11-21T01:29:50;6.00;99.90
11569;DHT22;5840;46.894;15.542;2023-11-21T01:32:19;6.00;99.90
11569;DHT22;5840;46.894;15.542;2023-11-21T01:34:47;6.00;99.90
11569;DHT22;5840;46.894;15.542;2023-11-21T01:37:14;6.00;99.90
11569;DHT22;5840;46.894;15.542;2023-11-21T01:39:43;6.10;99.90
11569;DHT22;5840;46.894;15.542;2023-11-21T01:42:10;6.10;99.90
11569;DHT22;5840;46.894;15.542;2023-11-21T01:44:38;6.00;99.90
11569;DHT22;5840;46.894;15.542;2023-11-21T01:47:08;6.00;99.90
11569;DHT22;5840;46.894;15.542;2023-11-21T01:49:36;6.00;99.90
11569;DHT22;5840;46.894;15.542;2023-11-21T01:52:04;6.00;99.90
11569;DHT22;5840;46.894;15.542;2023-11-21T01:54:31;6.00;99.90
11569;DHT22;5840;46.894;15.542;2023-11-21T01:56:59;5.90;99.90
11569;DHT22;5840;46.894;15.542;2023-11-21T01:59:33;5.90;99.90
11569;DHT22;5840;46.894;15.542;2023-11-21T02:02:02;5.90;99.90
11569;DHT22;5840;46.894;15.542;2023-11-21T02:04:32;6.00;99.90
11569;DHT22;5840;46.894;15.542;2023-11-21T02:07:00;6.00;99.90
11569;DHT22;5840;46.894;15.542;2023-11-21T02:09:27;6.00;99.90
11569;DHT22;5840;46.894;15.542;2023-11-21T02:11:55;6.00;99.90
11569;DHT22;5840;46.894;15.542;2023-11-21T02:14:24;6.10;99.90
11569;DHT22;5840;46.894;15.542;2023-11-21T02:16:53;6.10;99.90
11569;DHT22;5840;46.894;15.542;2023-11-21T02:19:21;6.10;99.90
11569;DHT22;5840;46.894;15.542;2023-11-21T02:21:52;6.10;99.90
11569;DHT22;5840;46.894;15.542;2023-11-21T02:24:22;6.10;99.90
11569;DHT22;5840;46.894;15.542;2023-11-21T02:26:49;6.10;99.90
11569;DHT22;5840;46.894;15.542;2023-11-21T02:29:17;6.00;99.90
11569;DHT22;5840;46.894;15.542;2023-11-21T02:31:47;6.00;99.90
11569;DHT22;5840;46.894;15.542;2023-11-21T02:34:15;6.00;99.90
11569;DHT22;5840;46.894;15.542;2023-11-21T02:36:42;6.00;99.90
11569;DHT22;5840;46.894;15.542;2023-11-21T02:39:09;6.00;99.90
11569;DHT22;5840;46.894;15.542;2023-11-21T02:41:38;6.00;99.90
11569;DHT22;5840;46.894;15.542;2023-11-21T02:44:05;6.00;99.90
11569;DHT22;5840;46.894;15.542;2023-11-21T02:46:33;6.00;99.90
11569;DHT22;5840;46.894;15.542;2023-11-21T02:49:00;5.90;99.90
11569;DHT22;5840;46.894;15.542;2023-11-21T02:51:27;5.80;99.90
11569;DHT22;5840;46.894;15.542;2023-11-21T02:53:54;5.70;99.90
11569;DHT22;5840;46.894;15.542;2023-11-21T02:56:24;5.70;99.90
11569;DHT22;5840;46.894;15.542;2023-11-21T02:58:55;5.70;99.90
11569;DHT22;5840;46.894;15.542;2023-11-21T03:01:23;5.70;99.90
11569;DHT22;5840;46.894;15.542;2023-11-21T03:03:50;5.70;99.90
11569;DHT22;5840;46.894;15.542;2023-11-21T03:06:17;5.70;99.90
11569;DHT22;5840;46.894;15.542;2023-11-21T03:08:44;5.70;99.90
11569;DHT22;5840;46.894;15.542;2023-11-21T03:11:11;5.60;99.90
11569;DHT22;5840;46.894;15.542;2023-11-21T03:13:39;5.60;99.90
11569;DHT22;5840;46.894;15.542;2023-11-21T03:16:09;5.50;99.90
11569;DHT22;5840;46.894;15.542;2023-11-21T03:18:36;5.50;99.90
11569;DHT22;5840;46.894;15.542;2023-11-21T03:21:03;5.50;99.90
11569;DHT22;5840;46.894;15.542;2023-11-21T03:23:30;5.50;99.90
11569;DHT22;5840;46.894;15.542;2023-11-21T03:25:57;5.50;99.90
11569;DHT22;5840;46.894;15.542;2023-11-21T03:28:25;5.50;99.90
11569;DHT22;5840;46.894;15.542;2023-11-21T03:30:53;5.50;99.90
11569;DHT22;5840;46.894;15.542;2023-11-21T03:33:22;5.50;99.90
11569;DHT22;5840;46.894;15.542;2023-11-21T03:35:49;5.50;99.90
11569;DHT22;5840;46.894;15.542;2023-11-21T03:38:16;5.50;99.90
11569;DHT22;5840;46.894;15.542;2023-11-21T03:40:43;5.50;99.90
11569;DHT22;5840;46.894;15.542;2023-11-21T03:43:10;5.50;99.90
11569;DHT22;5840;46.894;15.542;2023-11-21T03:45:37;5.50;99.90
11569;DHT22;5840;46.894;15.542;2023-11-21T03:48:06;5.50;99.90
11569;DHT22;5840;46.894;15.542;2023-11-21T03:50:34;5.50;99.90
11569;DHT22;5840;46.894;15.542;2023-11-21T03:53:01;5.50;99.90
11569;DHT22;5840;46.894;15.542;2023-11-21T03:55:29;5.50;99.90
11569;DHT22;5840;46.894;15.542;2023-11-21T03:57:57;5.50;99.90
11569;DHT22;5840;46.894;15.542;2023-11-21T04:00:24;5.50;99.90
11569;DHT22;5840;46.894;15.542;2023-11-21T04:02:52;5.50;99.90
11569;DHT22;5840;46.894;15.542;2023-11-21T04:05:20;5.50;99.90
11569;DHT22;5840;46.894;15.542;2023-11-21T04:10:14;5.60;99.90
11569;DHT22;5840;46.894;15.542;2023-11-21T04:12:41;5.60;99.90
11569;DHT22;5840;46.894;15.542;2023-11-21T04:15:09;5.60;99.90
11569;DHT22;5840;46.894;15.542;2023-11-21T04:17:36;5.60;99.90
11569;DHT22;5840;46.894;15.542;2023-11-21T04:20:04;5.60;99.90
11569;DHT22;5840;46.894;15.542;2023-11-21T04:22:35;5.60;99.90
11569;DHT22;5840;46.894;15.542;2023-11-21T04:25:04;5.60;99.90
11569;DHT22;5840;46.894;15.542;2023-11-21T04:27:32;5.60;99.90
11569;DHT22;5840;46.894;15.542;2023-11-21T04:30:00;5.70;99.90
11569;DHT22;5840;46.894;15.542;2023-11-21T04:32:27;5.70;99.90
11569;DHT22;5840;46.894;15.542;2023-11-21T04:34:54;5.70;99.90
11569;DHT22;5840;46.894;15.542;2023-11-21T04:37:20;5.70;99.90
11569;DHT22;5840;46.894;15.542;2023-11-21T04:39:48;5.70;99.90
11569;DHT22;5840;46.894;15.542;2023-11-21T04:42:16;5.70;99.90
11569;DHT22;5840;46.894;15.542;2023-11-21T04:44:43;5.70;99.90
11569;DHT22;5840;46.894;15.542;2023-11-21T04:47:10;5.70;99.90
11569;DHT22;5840;46.894;15.542;2023-11-21T04:49:39;5.60;99.90
11569;DHT22;5840;46.894;15.542;2023-11-21T04:52:06;5.60;99.90
11569;DHT22;5840;46.894;15.542;2023-11-21T04:54:35;5.60;99.90
11569;DHT22;5840;46.894;15.542;2023-11-21T04:57:02;5.60;99.90
11569;DHT22;5840;46.894;15.542;2023-11-21T04:59:32;5.70;99.90
11569;DHT22;5840;46.894;15.542;2023-11-21T05:01:58;5.70;99.90
11569;DHT22;5840;46.894;15.542;2023-11-21T05:04:26;5.70;99.90
11569;DHT22;5840;46.894;15.542;2023-11-21T05:06:53;5.70;99.90
11569;DHT22;5840;46.894;15.542;2023-11-21T05:09:20;5.70;99.90
11569;DHT22;5840;46.894;15.542;2023-11-21T05:11:47;5.70;99.90
11569;DHT22;5840;46.894;15.542;2023-11-21T05:14:14;5.80;99.90
11569;DHT22;5840;46.894;15.542;2023-11-21T05:16:43;5.80;99.90
11569;DHT22;5840;46.894;15.542;2023-11-21T05:19:09;5.80;99.90
11569;DHT22;5840;46.894;15.542;2023-11-21T05:21:38;5.90;99.90
11569;DHT22;5840;46.894;15.542;2023-11-21T05:24:06;5.90;99.90
11569;DHT22;5840;46.894;15.542;2023-11-21T05:26:33;5.90;99.90
11569;DHT22;5840;46.894;15.542;2023-11-21T05:29:00;5.90;99.90
11569;DHT22;5840;46.894;15.542;2023-11-21T05:31:27;5.90;99.90
11569;DHT22;5840;46.894;15.542;2023-11-21T05:33:55;5.90;99.90
11569;DHT22;5840;46.894;15.542;2023-11-21T05:36:22;5.90;99.90
11569;DHT22;5840;46.894;15.542;2023-11-21T05:38:49;5.80;99.90
11569;DHT22;5840;46.894;15.542;2023-11-21T05:41:16;5.80;99.90
11569;DHT22;5840;46.894;15.542;2023-11-21T05:43:43;5.80;99.90
11569;DHT22;5840;46.894;15.542;2023-11-21T05:46:10;5.80;99.90
11569;DHT22;5840;46.894;15.542;2023-11-21T05:48:38;5.70;99.90
11569;DHT22;5840;46.894;15.542;2023-11-21T05:51:07;5.70;99.90
11569;DHT22;5840;46.894;15.542;2023-11-21T05:53:34;5.60;99.90
11569;DHT22;5840;46.894;15.542;2023-11-21T05:56:02;5.60;99.90
11569;DHT22;5840;46.894;15.542;2023-11-21T05:58:29;5.50;99.90
11569;DHT22;5840;46.894;15.542;2023-11-21T06:00:56;5.50;99.90
11569;DHT22;5840;46.894;15.542;2023-11-21T06:03:23;5.50;99.90
11569;DHT22;5840;46.894;15.542;2023-11-21T06:05:50;5.50;99.90
11569;DHT22;5840;46.894;15.542;2023-11-21T06:08:19;5.50;99.90
11569;DHT22;5840;46.894;15.542;2023-11-21T06:10:46;5.50;99.90
11569;DHT22;5840;46.894;15.542;2023-11-21T06:13:14;5.50;99.90
11569;DHT22;5840;46.894;15.542;2023-11-21T06:15:41;5.60;99.90
11569;DHT22;5840;46.894;15.542;2023-11-21T06:18:08;5.60;99.90
11569;DHT22;5840;46.894;15.542;2023-11-21T06:20:36;5.60;99.90
11569;DHT22;5840;46.894;15.542;2023-11-21T06:23:04;5.60;99.90
11569;DHT22;5840;46.894;15.542;2023-11-21T06:25:32;5.60;99.90
11569;DHT22;5840;46.894;15.542;2023-11-21T06:28:01;5.60;99.90
11569;DHT22;5840;46.894;15.542;2023-11-21T06:30:28;5.60;99.90
11569;DHT22;5840;46.894;15.542;2023-11-21T06:32:56;5.60;99.90
11569;DHT22;5840;46.894;15.542;2023-11-21T06:35:23;5.60;99.90
11569;DHT22;5840;46.894;15.542;2023-11-21T06:37:50;5.60;99.90
11569;DHT22;5840;46.894;15.542;2023-11-21T06:40:18;5.70;99.90
11569;DHT22;5840;46.894;15.542;2023-11-21T06:42:46;5.70;99.90
11569;DHT22;5840;46.894;15.542;2023-11-21T06:45:13;5.70;99.90
11569;DHT22;5840;46.894;15.542;2023-11-21T06:47:40;5.70;99.90
11569;DHT22;5840;46.894;15.542;2023-11-21T06:50:08;5.70;99.90
11569;DHT22;5840;46.894;15.542;2023-11-21T06:52:35;5.70;99.90
11569;DHT22;5840;46.894;15.542;2023-11-21T06:55:02;5.80;99.90
11569;DHT22;5840;46.894;15.542;2023-11-21T06:57:30;5.80;99.90
11569;DHT22;5840;46.894;15.542;2023-11-21T06:59:59;5.80;99.90
11569;DHT22;5840;46.894;15.542;2023-11-21T07:02:26;5.80;99.90
11569;DHT22;5840;46.894;15.542;2023-11-21T07:04:53;5.90;99.90
11569;DHT22;5840;46.894;15.542;2023-11-21T07:07:21;5.90;99.90
11569;DHT22;5840;46.894;15.542;2023-11-21T07:09:48;5.90;99.90
11569;DHT22;5840;46.894;15.542;2023-11-21T07:12:15;5.90;99.90
11569;DHT22;5840;46.894;15.542;2023-11-21T07:14:41;5.90;99.90
11569;DHT22;5840;46.894;15.542;2023-11-21T07:17:12;5.90;99.90
11569;DHT22;5840;46.894;15.542;2023-11-21T07:19:39;5.90;99.90
11569;DHT22;5840;46.894;15.542;2023-11-21T07:22:07;5.90;99.90
11569;DHT22;5840;46.894;15.542;2023-11-21T07:24:34;5.90;99.90
11569;DHT22;5840;46.894;15.542;2023-11-21T07:27:02;5.90;99.90
11569;DHT22;5840;46.894;15.542;2023-11-21T07:29:30;5.90;99.90
11569;DHT22;5840;46.894;15.542;2023-11-21T07:31:57;5.90;99.90
11569;DHT22;5840;46.894;15.542;2023-11-21T07:34:25;6.00;99.90
11569;DHT22;5840;46.894;15.542;2023-11-21T07:36:52;6.00;99.90
11569;DHT22;5840;46.894;15.542;2023-11-21T07:39:19;6.10;99.90
11569;DHT22;5840;46.894;15.542;2023-11-21T07:41:46;6.10;99.90
11569;DHT22;5840;46.894;15.542;2023-11-21T07:44:15;6.20;99.90
11569;DHT22;5840;46.894;15.542;2023-11-21T07:46:43;6.20;99.90
11569;DHT22;5840;46.894;15.542;2023-11-21T07:49:11;6.20;99.90
11569;DHT22;5840;46.894;15.542;2023-11-21T07:51:41;6.20;99.90
11569;DHT22;5840;46.894;15.542;2023-11-21T07:54:09;6.20;99.90
11569;DHT22;5840;46.894;15.542;2023-11-21T07:56:36;6.30;99.90
11569;DHT22;5840;46.894;15.542;2023-11-21T07:59:03;6.20;99.90
11569;DHT22;5840;46.894;15.542;2023-11-21T08:01:31;6.30;99.90
11569;DHT22;5840;46.894;15.542;2023-11-21T08:03:58;6.30;99.90
11569;DHT22;5840;46.894;15.542;2023-11-21T08:06:29;6.30;99.90
11569;DHT22;5840;46.894;15.542;2023-11-21T08:08:57;6.30;99.90
11569;DHT22;5840;46.894;15.542;2023-11-21T08:11:24;6.40;99.90
11569;DHT22;5840;46.894;15.542;2023-11-21T08:13:52;6.40;99.90
11569;DHT22;5840;46.894;15.542;2023-11-21T08:16:19;6.30;99.90
11569;DHT22;5840;46.894;15.542;2023-11-21T08:18:45;6.30;99.90
11569;DHT22;5840;46.894;15.542;2023-11-21T08:21:13;6.30;99.90
11569;DHT22;5840;46.894;15.542;2023-11-21T08:23:40;6.20;99.90
11569;DHT22;5840;46.894;15.542;2023-11-21T08:26:08;6.20;99.90
11569;DHT22;5840;46.894;15.542;2023-11-21T08:28:35;6.20;99.90
11569;DHT22;5840;46.894;15.542;2023-11-21T08:31:02;6.30;99.90
11569;DHT22;5840;46.894;15.542;2023-11-21T08:33:30;6.40;99.90
11569;DHT22;5840;46.894;15.542;2023-11-21T08:35:57;6.40;99.90
11569;DHT22;5840;46.894;15.542;2023-11-21T08:38:23;6.40;99.90
11569;DHT22;5840;46.894;15.542;2023-11-21T08:40:50;6.50;99.90
11569;DHT22;5840;46.894;15.542;2023-11-21T08:43:19;6.50;99.90
11569;DHT22;5840;46.894;15.542;2023-11-21T08:45:46;6.60;99.90
11569;DHT22;5840;46.894;15.542;2023-11-21T08:48:13;6.60;99.90
11569;DHT22;5840;46.894;15.542;2023-11-21T08:50:40;6.60;99.90
11569;DHT22;5840;46.894;15.542;2023-11-21T08:53:07;6.60;99.90
11569;DHT22;5840;46.894;15.542;2023-11-21T08:55:34;6.50;99.90
11569;DHT22;5840;46.894;15.542;2023-11-21T08:58:03;6.50;99.90
11569;DHT22;5840;46.894;15.542;2023-11-21T09:00:32;6.50;99.90
11569;DHT22;5840;46.894;15.542;2023-11-21T09:03:01;6.60;99.90
11569;DHT22;5840;46.894;15.542;2023-11-21T09:05:29;6.60;99.90
11569;DHT22;5840;46.894;15.542;2023-11-21T09:07:55;6.60;99.90
11569;DHT22;5840;46.894;15.542;2023-11-21T09:10:22;6.60;99.90
11569;DHT22;5840;46.894;15.542;2023-11-21T09:12:51;6.60;99.90
11569;DHT22;5840;46.894;15.542;2023-11-21T09:15:18;6.60;99.90
11569;DHT22;5840;46.894;15.542;2023-11-21T09:17:47;6.60;99.90
11569;DHT22;5840;46.894;15.542;2023-11-21T09:20:14;6.70;99.90
11569;DHT22;5840;46.894;15.542;2023-11-21T09:22:42;6.80;99.90
11569;DHT22;5840;46.894;15.542;2023-11-21T09:25:10;6.80;99.90
11569;DHT22;5840;46.894;15.542;2023-11-21T09:27:38;6.80;99.90
11569;DHT22;5840;46.894;15.542;2023-11-21T09:30:06;6.90;99.90
11569;DHT22;5840;46.894;15.542;2023-11-21T09:32:35;7.00;99.90
11569;DHT22;5840;46.894;15.542;2023-11-21T09:35:05;7.00;99.90
11569;DHT22;5840;46.894;15.542;2023-11-21T09:37:34;7.10;99.90
11569;DHT22;5840;46.894;15.542;2023-11-21T09:40:02;7.10;99.90
11569;DHT22;5840;46.894;15.542;2023-11-21T09:42:32;7.10;99.90
11569;DHT22;5840;46.894;15.542;2023-11-21T09:45:05;7.10;99.90
11569;DHT22;5840;46.894;15.542;2023-11-21T09:47:35;7.20;99.90
11569;DHT22;5840;46.894;15.542;2023-11-21T09:50:09;7.20;99.90
11569;DHT22;5840;46.894;15.542;2023-11-21T09:52:54;7.30;99.90
11569;DHT22;5840;46.894;15.542;2023-11-21T09:55:25;7.40;99.90
11569;DHT22;5840;46.894;15.542;2023-11-21T09:57:54;7.40;99.90
11569;DHT22;5840;46.894;15.542;2023-11-21T10:00:23;7.50;99.90
11569;DHT22;5840;46.894;15.542;2023-11-21T10:02:51;7.50;99.90
11569;DHT22;5840;46.894;15.542;2023-11-21T10:05:20;7.60;99.90
11569;DHT22;5840;46.894;15.542;2023-11-21T10:07:49;7.60;99.90
11569;DHT22;5840;46.894;15.542;2023-11-21T10:10:19;7.60;99.90
11569;DHT22;5840;46.894;15.542;2023-11-21T10:12:50;7.70;99.90
11569;DHT22;5840;46.894;15.542;2023-11-21T10:15:21;7.70;99.90
11569;DHT22;5840;46.894;15.542;2023-11-21T10:17:49;7.70;99.90
11569;DHT22;5840;46.894;15.542;2023-11-21T10:20:20;7.70;99.90
11569;DHT22;5840;46.894;15.542;2023-11-21T10:22:47;7.80;99.90
11569;DHT22;5840;46.894;15.542;2023-11-21T10:25:14;7.80;99.90
11569;DHT22;5840;46.894;15.542;2023-11-21T10:27:42;7.90;99.90
11569;DHT22;5840;46.894;15.542;2023-11-21T10:30:10;7.90;99.90
11569;DHT22;5840;46.894;15.542;2023-11-21T10:32:37;8.00;99.90
11569;DHT22;5840;46.894;15.542;2023-11-21T10:35:06;8.00;99.90
11569;DHT22;5840;46.894;15.542;2023-11-21T10:37:37;8.00;99.90
11569;DHT22;5840;46.894;15.542;2023-11-21T10:40:06;8.00;99.90
11569;DHT22;5840;46.894;15.542;2023-11-21T10:42:34;8.10;99.90
11569;DHT22;5840;46.894;15.542;2023-11-21T10:45:01;8.10;99.90
11569;DHT22;5840;46.894;15.542;2023-11-21T10:47:31;8.00;99.90
11569;DHT22;5840;46.894;15.542;2023-11-21T10:50:00;8.00;99.90
11569;DHT22;5840;46.894;15.542;2023-11-21T10:52:28;8.00;99.90
11569;DHT22;5840;46.894;15.542;2023-11-21T10:54:56;8.00;99.90
11569;DHT22;5840;46.894;15.542;2023-11-21T10:57:25;8.10;99.90
11569;DHT22;5840;46.894;15.542;2023-11-21T10:59:54;8.20;99.90
11569;DHT22;5840;46.894;15.542;2023-11-21T11:02:24;8.20;99.90
11569;DHT22;5840;46.894;15.542;2023-11-21T11:04:52;8.30;99.90
11569;DHT22;5840;46.894;15.542;2023-11-21T11:07:22;8.30;99.90
11569;DHT22;5840;46.894;15.542;2023-11-21T11:09:51;8.40;99.90
11569;DHT22;5840;46.894;15.542;2023-11-21T11:12:19;8.50;99.90
11569;DHT22;5840;46.894;15.542;2023-11-21T11:14:48;8.60;99.90
11569;DHT22;5840;46.894;15.542;2023-11-21T11:17:15;8.60;99.90
11569;DHT22;5840;46.894;15.542;2023-11-21T11:19:43;8.60;99.90
11569;DHT22;5840;46.894;15.542;2023-11-21T11:22:17;8.70;99.90
11569;DHT22;5840;46.894;15.542;2023-11-21T11:25:12;8.70;99.90
11569;DHT22;5840;46.894;15.542;2023-11-21T11:27:52;8.70;99.90
11569;DHT22;5840;46.894;15.542;2023-11-21T11:30:31;8.60;99.90
11569;DHT22;5840;46.894;15.542;2023-11-21T11:33:10;8.60;99.90
11569;DHT22;5840;46.894;15.542;2023-11-21T11:35:50;8.60;99.90
11569;DHT22;5840;46.894;15.542;2023-11-21T11:38:21;8.60;99.90
11569;DHT22;5840;46.894;15.542;2023-11-21T11:40:52;8.60;99.90
11569;DHT22;5840;46.894;15.542;2023-11-21T11:43:26;8.60;99.90
11569;DHT22;5840;46.894;15.542;2023-11-21T11:45:56;8.70;99.90
11569;DHT22;5840;46.894;15.542;2023-11-21T11:48:25;8.70;99.90
11569;DHT22;5840;46.894;15.542;2023-11-21T11:51:02;8.70;99.90
11569;DHT22;5840;46.894;15.542;2023-11-21T11:53:35;8.70;99.90
11569;DHT22;5840;46.894;15.542;2023-11-21T11:56:33;8.60;99.90
11569;DHT22;5840;46.894;15.542;2023-11-21T11:59:04;8.60;99.90
11569;DHT22;5840;46.894;15.542;2023-11-21T12:01:34;8.70;99.90
11569;DHT22;5840;46.894;15.542;2023-11-21T12:04:28;8.70;99.90
11569;DHT22;5840;46.894;15.542;2023-11-21T12:07:00;8.70;99.90
11569;DHT22;5840;46.894;15.542;2023-11-21T12:09:29;8.60;99.90
11569;DHT22;5840;46.894;15.542;2023-11-21T12:11:57;8.70;99.90
11569;DHT22;5840;46.894;15.542;2023-11-21T12:14:25;8.60;99.90
11569;DHT22;5840;46.894;15.542;2023-11-21T12:16:52;8.60;99.90
11569;DHT22;5840;46.894;15.542;2023-11-21T12:19:20;8.60;99.90
11569;DHT22;5840;46.894;15.542;2023-11-21T12:21:48;8.60;99.90
11569;DHT22;5840;46.894;15.542;2023-11-21T12:24:16;8.60;99.90
11569;DHT22;5840;46.894;15.542;2023-11-21T12:26:43;8.60;99.90
11569;DHT22;5840;46.894;15.542;2023-11-21T12:29:11;8.60;99.90
11569;DHT22;5840;46.894;15.542;2023-11-21T12:31:39;8.60;99.90
11569;DHT22;5840;46.894;15.542;2023-11-21T12:34:07;8.60;99.90
11569;DHT22;5840;46.894;15.542;2023-11-21T12:36:37;8.60;99.90
11569;DHT22;5840;46.894;15.542;2023-11-21T12:39:04;8.60;99.90
11569;DHT22;5840;46.894;15.542;2023-11-21T12:41:31;8.70;99.90
11569;DHT22;5840;46.894;15.542;2023-11-21T12:43:58;8.60;99.90
11569;DHT22;5840;46.894;15.542;2023-11-21T12:46:25;8.70;99.90
11569;DHT22;5840;46.894;15.542;2023-11-21T12:48:57;8.70;99.90
11569;DHT22;5840;46.894;15.542;2023-11-21T12:51:24;8.80;99.90
11569;DHT22;5840;46.894;15.542;2023-11-21T12:53:52;8.80;99.90
11569;DHT22;5840;46.894;15.542;2023-11-21T12:56:21;8.80;99.90
11569;DHT22;5840;46.894;15.542;2023-11-21T12:58:50;8.80;99.90
11569;DHT22;5840;46.894;15.542;2023-11-21T13:01:20;8.80;99.90
11569;DHT22;5840;46.894;15.542;2023-11-21T13:03:49;8.90;99.90
11569;DHT22;5840;46.894;15.542;2023-11-21T13:06:19;8.90;99.90
11569;DHT22;5840;46.894;15.542;2023-11-21T13:08:50;8.90;99.90
11569;DHT22;5840;46.894;15.542;2023-11-21T13:11:17;8.90;99.90
11569;DHT22;5840;46.894;15.542;2023-11-21T13:13:44;9.00;99.90
11569;DHT22;5840;46.894;15.542;2023-11-21T13:16:11;9.00;99.90
11569;DHT22;5840;46.894;15.542;2023-11-21T13:18:38;9.20;99.90
11569;DHT22;5840;46.894;15.542;2023-11-21T13:21:08;9.20;99.90
11569;DHT22;5840;46.894;15.542;2023-11-21T13:23:41;9.20;99.90
11569;DHT22;5840;46.894;15.542;2023-11-21T13:26:10;9.30;99.90
11569;DHT22;5840;46.894;15.542;2023-11-21T13:28:38;9.30;99.90
11569;DHT22;5840;46.894;15.542;2023-11-21T13:31:07;9.20;99.90
11569;DHT22;5840;46.894;15.542;2023-11-21T13:33:46;9.20;99.90
11569;DHT22;5840;46.894;15.542;2023-11-21T13:36:17;9.10;99.90
11569;DHT22;5840;46.894;15.542;2023-11-21T13:38:49;9.00;99.90
11569;DHT22;5840;46.894;15.542;2023-11-21T13:41:18;9.00;99.90
11569;DHT22;5840;46.894;15.542;2023-11-21T13:43:45;9.00;99.90
11569;DHT22;5840;46.894;15.542;2023-11-21T13:46:19;9.00;99.90
11569;DHT22;5840;46.894;15.542;2023-11-21T13:48:49;9.00;99.90
11569;DHT22;5840;46.894;15.542;2023-11-21T13:51:21;8.90;99.90
11569;DHT22;5840;46.894;15.542;2023-11-21T13:53:59;8.90;99.90
11569;DHT22;5840;46.894;15.542;2023-11-21T13:56:26;8.90;99.90
11569;DHT22;5840;46.894;15.542;2023-11-21T13:58:55;8.90;99.90
11569;DHT22;5840;46.894;15.542;2023-11-21T14:01:26;8.90;99.90
11569;DHT22;5840;46.894;15.542;2023-11-21T14:04:19;8.90;99.90
11569;DHT22;5840;46.894;15.542;2023-11-21T14:07:01;8.90;99.90
11569;DHT22;5840;46.894;15.542;2023-11-21T14:09:46;8.90;99.90
11569;DHT22;5840;46.894;15.542;2023-11-21T14:12:15;8.90;99.90
11569;DHT22;5840;46.894;15.542;2023-11-21T14:14:42;8.80;99.90
11569;DHT22;5840;46.894;15.542;2023-11-21T14:17:10;8.80;99.90
11569;DHT22;5840;46.894;15.542;2023-11-21T14:19:37;8.70;99.90
11569;DHT22;5840;46.894;15.542;2023-11-21T14:22:06;8.70;99.90
11569;DHT22;5840;46.894;15.542;2023-11-21T14:24:35;8.70;99.90
11569;DHT22;5840;46.894;15.542;2023-11-21T14:27:04;8.70;99.90
11569;DHT22;5840;46.894;15.542;2023-11-21T14:29:31;8.60;99.90
11569;DHT22;5840;46.894;15.542;2023-11-21T14:32:02;8.60;99.90
11569;DHT22;5840;46.894;15.542;2023-11-21T14:34:31;8.60;99.90
11569;DHT22;5840;46.894;15.542;2023-11-21T14:36:57;8.50;99.90
11569;DHT22;5840;46.894;15.542;2023-11-21T14:39:24;8.50;99.90
11569;DHT22;5840;46.894;15.542;2023-11-21T14:41:54;8.50;99.90
11569;DHT22;5840;46.894;15.542;2023-11-21T14:44:25;8.40;99.90
11569;DHT22;5840;46.894;15.542;2023-11-21T14:46:58;8.40;99.90
11569;DHT22;5840;46.894;15.542;2023-11-21T14:49:26;8.40;99.90
11569;DHT22;5840;46.894;15.542;2023-11-21T14:51:59;8.40;99.90
11569;DHT22;5840;46.894;15.542;2023-11-21T14:54:28;8.30;99.90
11569;DHT22;5840;46.894;15.542;2023-11-21T14:57:07;8.30;99.90
11569;DHT22;5840;46.894;15.542;2023-11-21T14:59:43;8.30;99.90
11569;DHT22;5840;46.894;15.542;2023-11-21T15:02:13;8.30;99.90
11569;DHT22;5840;46.894;15.542;2023-11-21T15:04:43;8.30;99.90
11569;DHT22;5840;46.894;15.542;2023-11-21T15:07:10;8.20;99.90
11569;DHT22;5840;46.894;15.542;2023-11-21T15:09:37;8.20;99.90
11569;DHT22;5840;46.894;15.542;2023-11-21T15:12:08;8.20;99.90
11569;DHT22;5840;46.894;15.542;2023-11-21T15:14:42;8.20;99.90
11569;DHT22;5840;46.894;15.542;2023-11-21T15:17:11;8.10;99.90
11569;DHT22;5840;46.894;15.542;2023-11-21T15:19:41;8.10;99.90
11569;DHT22;5840;46.894;15.542;2023-11-21T15:22:09;8.10;99.90
11569;DHT22;5840;46.894;15.542;2023-11-21T15:24:40;8.10;99.90
11569;DHT22;5840;46.894;15.542;2023-11-21T15:27:10;8.10;99.90
11569;DHT22;5840;46.894;15.542;2023-11-21T15:29:37;8.00;99.90
11569;DHT22;5840;46.894;15.542;2023-11-21T15:32:06;8.00;99.90
11569;DHT22;5840;46.894;15.542;2023-11-21T15:34:33;8.00;99.90
11569;DHT22;5840;46.894;15.542;2023-11-21T15:37:00;8.00;99.90
11569;DHT22;5840;46.894;15.542;2023-11-21T15:39:28;8.00;99.90
11569;DHT22;5840;46.894;15.542;2023-11-21T15:41:56;7.90;99.90
11569;DHT22;5840;46.894;15.542;2023-11-21T15:44:23;8.00;99.90
11569;DHT22;5840;46.894;15.542;2023-11-21T15:46:51;7.90;99.90
11569;DHT22;5840;46.894;15.542;2023-11-21T15:49:19;7.90;99.90
11569;DHT22;5840;46.894;15.542;2023-11-21T15:51:48;7.90;99.90
11569;DHT22;5840;46.894;15.542;2023-11-21T15:54:19;7.90;99.90
11569;DHT22;5840;46.894;15.542;2023-11-21T15:56:47;7.90;99.90